createdAt,value
2022-09-03T00:00:07.808Z,61.34
2022-09-03T00:00:15.818Z,61.36
2022-09-03T00:00:25.839Z,61.16
2022-09-03T00:00:37.796Z,61.22
2022-09-03T00:00:47.801Z,61.37
2022-09-03T00:00:55.826Z,61.31
2022-09-03T00:01:06.009Z,61.20
2022-09-03T00:01:16.037Z,61.25
2022-09-03T00:01:25.872Z,61.27
2022-09-03T00:01:35.928Z,61.29
2022-09-03T00:01:45.914Z,61.29
2022-09-03T00:01:57.836Z,61.36
2022-09-03T00:02:05.865Z,61.49
2022-09-03T00:02:15.830Z,61.35
2022-09-03T00:02:25.834Z,61.34
2022-09-03T00:02:37.881Z,61.37
2022-09-03T00:02:47.807Z,61.45
2022-09-03T00:02:56.024Z,61.44
2022-09-03T00:03:05.994Z,61.36
2022-09-03T00:03:16.729Z,61.41
2022-09-03T00:03:25.811Z,61.49
2022-09-03T00:03:37.760Z,61.48
2022-09-03T00:03:47.762Z,61.59
2022-09-03T00:03:56.661Z,61.49
2022-09-03T00:04:07.750Z,61.46
2022-09-03T00:04:23.072Z,61.57
2022-09-03T00:04:27.400Z,61.91
2022-09-03T00:04:37.379Z,61.68
2022-09-03T00:04:49.330Z,61.62
2022-09-03T00:04:57.402Z,61.73
2022-09-03T00:05:07.389Z,61.57
2022-09-03T00:05:18.330Z,61.56
2022-09-03T00:05:27.378Z,61.59
2022-09-03T00:05:37.380Z,61.56
2022-09-03T00:05:48.952Z,61.60
2022-09-03T00:05:57.372Z,61.68
2022-09-03T00:06:09.368Z,61.58
2022-09-03T00:06:19.301Z,61.72
2022-09-03T00:06:27.371Z,61.71
2022-09-03T00:06:37.440Z,61.58
2022-09-03T00:06:47.381Z,61.63
2022-09-03T00:06:59.291Z,61.63
2022-09-03T00:07:09.335Z,61.71
2022-09-03T00:07:17.359Z,61.72
2022-09-03T00:07:27.420Z,61.57
2022-09-03T00:07:37.341Z,61.61
2022-09-03T00:07:47.361Z,61.72
2022-09-03T00:07:57.353Z,61.66
2022-09-03T00:08:09.316Z,61.79
2022-09-03T00:08:17.350Z,61.81
2022-09-03T00:08:29.307Z,61.66
2022-09-03T00:08:38.269Z,61.82
2022-09-03T00:08:49.281Z,61.99
2022-09-03T00:08:59.281Z,61.98
2022-09-03T00:09:09.341Z,61.91
2022-09-03T00:09:17.381Z,61.83
2022-09-03T00:09:30.612Z,61.77
2022-09-03T00:09:38.319Z,62.03
2022-09-03T00:09:49.385Z,62.00
2022-09-03T00:09:57.335Z,62.02
2022-09-03T00:10:09.373Z,61.86
2022-09-03T00:10:19.284Z,62.15
2022-09-03T00:10:29.276Z,62.22
2022-09-03T00:10:37.342Z,62.15
2022-09-03T00:10:47.352Z,61.98
2022-09-03T00:10:58.339Z,61.96
2022-09-03T00:11:09.362Z,62.12
2022-09-03T00:11:18.843Z,62.11
2022-09-03T00:11:29.283Z,62.05
2022-09-03T00:11:39.306Z,62.07
2022-09-03T00:11:49.292Z,62.11
2022-09-03T00:11:57.324Z,62.05
2022-09-03T00:12:07.332Z,61.93
2022-09-03T00:12:19.272Z,61.98
2022-09-03T00:12:29.264Z,62.09
2022-09-03T00:12:38.793Z,62.08
2022-09-03T00:12:49.253Z,62.06
2022-09-03T00:12:57.332Z,62.18
2022-09-03T00:13:07.356Z,62.14
2022-09-03T00:13:17.323Z,62.19
2022-09-03T00:13:29.281Z,62.20
2022-09-03T00:13:39.261Z,62.27
2022-09-03T00:13:47.477Z,62.22
2022-09-03T00:13:57.302Z,62.10
2022-09-03T00:14:08.253Z,62.17
2022-09-03T00:14:19.284Z,62.22
2022-09-03T00:14:29.250Z,62.24
2022-09-03T00:14:39.265Z,62.20
2022-09-03T00:14:49.260Z,62.17
2022-09-03T00:14:57.373Z,62.13
2022-09-03T00:15:08.153Z,62.10
2022-09-03T00:15:17.347Z,62.12
2022-09-03T00:15:27.292Z,62.07
2022-09-03T00:15:37.347Z,62.14
2022-09-03T00:15:47.389Z,62.08
2022-09-03T00:15:57.371Z,62.13
2022-09-03T00:16:07.409Z,62.13
2022-09-03T00:16:19.343Z,62.16
2022-09-03T00:16:27.371Z,62.25
2022-09-03T00:16:38.263Z,62.11
2022-09-03T00:16:49.231Z,62.17
2022-09-03T00:16:59.234Z,62.25
2022-09-03T00:17:08.001Z,62.23
2022-09-03T00:17:18.814Z,62.15
2022-09-03T00:17:28.243Z,62.20
2022-09-03T00:17:37.283Z,62.20
2022-09-03T00:17:47.303Z,62.16
2022-09-03T00:17:57.333Z,62.14
2022-09-03T00:18:08.127Z,62.19
2022-09-03T00:18:17.334Z,62.25
2022-09-03T00:18:27.304Z,62.13
2022-09-03T00:18:39.234Z,62.18
2022-09-03T00:18:47.281Z,62.29
2022-09-03T00:18:57.294Z,62.16
2022-09-03T00:19:07.285Z,62.18
2022-09-03T00:19:17.454Z,62.17
2022-09-03T00:19:29.223Z,62.21
2022-09-03T00:19:38.733Z,62.33
2022-09-03T00:19:49.248Z,62.21
2022-09-03T00:19:57.332Z,62.26
2022-09-03T00:20:07.264Z,62.16
2022-09-03T00:20:17.274Z,62.20
2022-09-03T00:20:29.214Z,62.22
2022-09-03T00:20:37.275Z,62.36
2022-09-03T00:20:49.239Z,62.25
2022-09-03T00:20:57.276Z,62.38
2022-09-03T00:21:07.264Z,62.27
2022-09-03T00:21:17.274Z,62.33
2022-09-03T00:21:29.216Z,62.36
2022-09-03T00:21:37.263Z,62.53
2022-09-03T00:21:47.275Z,62.39
2022-09-03T00:21:59.226Z,62.43
2022-09-03T00:22:07.256Z,62.54
2022-09-03T00:22:19.207Z,62.36
2022-09-03T00:22:29.195Z,62.50
2022-09-03T00:22:37.255Z,62.46
2022-09-03T00:22:47.245Z,62.36
2022-09-03T00:22:57.295Z,62.40
2022-09-03T00:23:08.784Z,62.44
2022-09-03T00:23:17.286Z,62.50
2022-09-03T00:23:29.176Z,62.44
2022-09-03T00:23:39.195Z,62.58
2022-09-03T00:23:47.838Z,62.62
2022-09-03T00:23:59.185Z,62.47
2022-09-03T00:24:14.096Z,62.56
2022-09-03T00:24:19.576Z,62.86
2022-09-03T00:24:30.745Z,62.71
2022-09-03T00:24:38.795Z,62.69
2022-09-03T00:24:50.745Z,62.53
2022-09-03T00:25:00.756Z,62.68
2022-09-03T00:25:09.506Z,62.64
2022-09-03T00:25:19.587Z,62.52
2022-09-03T00:25:29.606Z,62.56
2022-09-03T00:25:38.776Z,62.53
2022-09-03T00:25:50.745Z,62.48
2022-09-03T00:25:58.788Z,62.68
2022-09-03T00:26:08.797Z,62.56
2022-09-03T00:26:18.853Z,62.56
2022-09-03T00:26:29.616Z,62.59
2022-09-03T00:26:38.796Z,62.61
2022-09-03T00:26:50.758Z,62.52
2022-09-03T00:27:00.735Z,62.65
2022-09-03T00:27:10.723Z,62.56
2022-09-03T00:27:20.731Z,62.54
2022-09-03T00:27:30.717Z,62.56
2022-09-03T00:27:39.499Z,62.50
2022-09-03T00:27:50.735Z,62.48
2022-09-03T00:28:00.217Z,62.58
2022-09-03T00:28:08.767Z,62.52
2022-09-03T00:28:20.736Z,62.46
2022-09-03T00:28:30.218Z,62.59
2022-09-03T00:28:39.047Z,62.50
2022-09-03T00:28:50.715Z,62.40
2022-09-03T00:29:00.219Z,62.54
2022-09-03T00:29:10.706Z,62.48
2022-09-03T00:29:18.785Z,62.48
2022-09-03T00:29:28.746Z,62.33
2022-09-03T00:29:39.912Z,62.43
2022-09-03T00:29:48.747Z,62.60
2022-09-03T00:29:59.561Z,62.53
2022-09-03T00:30:08.801Z,62.58
2022-09-03T00:30:18.817Z,62.56
2022-09-03T00:30:28.835Z,62.43
2022-09-03T00:30:38.826Z,62.45
2022-09-03T00:30:48.983Z,62.50
2022-09-03T00:30:59.738Z,62.51
2022-09-03T00:31:10.784Z,62.58
2022-09-03T00:31:20.805Z,62.59
2022-09-03T00:31:29.675Z,62.53
2022-09-03T00:31:40.772Z,62.44
2022-09-03T00:31:50.757Z,62.54
2022-09-03T00:31:59.368Z,62.53
2022-09-03T00:32:08.872Z,62.45
2022-09-03T00:32:18.817Z,62.48
2022-09-03T00:32:29.048Z,62.50
2022-09-03T00:32:38.789Z,62.55
2022-09-03T00:32:50.782Z,62.58
2022-09-03T00:32:59.768Z,62.71
2022-09-03T00:33:10.767Z,62.60
2022-09-03T00:33:20.768Z,62.74
2022-09-03T00:33:28.788Z,62.83
2022-09-03T00:33:40.781Z,62.71
2022-09-03T00:33:48.797Z,62.93
2022-09-03T00:33:58.867Z,62.77
2022-09-03T00:34:08.815Z,62.79
2022-09-03T00:34:19.639Z,62.75
2022-09-03T00:34:29.048Z,62.81
2022-09-03T00:34:38.786Z,62.74
2022-09-03T00:34:48.798Z,62.72
2022-09-03T00:34:58.799Z,62.75
2022-09-03T00:35:08.800Z,62.75
2022-09-03T00:35:20.718Z,62.74
2022-09-03T00:35:28.778Z,62.81
2022-09-03T00:35:40.749Z,62.72
2022-09-03T00:35:50.748Z,62.91
2022-09-03T00:36:00.828Z,62.89
2022-09-03T00:36:10.729Z,62.80
2022-09-03T00:36:20.735Z,62.76
2022-09-03T00:36:30.718Z,62.77
2022-09-03T00:36:39.119Z,62.78
2022-09-03T00:36:48.789Z,62.78
2022-09-03T00:37:00.728Z,62.89
2022-09-03T00:37:12.408Z,63.14
2022-09-03T00:37:20.729Z,63.39
2022-09-03T00:37:29.179Z,63.18
2022-09-03T00:37:38.919Z,63.25
2022-09-03T00:37:48.759Z,63.07
2022-09-03T00:37:58.829Z,62.98
2022-09-03T00:38:09.221Z,62.97
2022-09-03T00:38:18.848Z,62.98
2022-09-03T00:38:29.192Z,62.97
2022-09-03T00:38:39.219Z,62.99
2022-09-03T00:38:48.773Z,62.99
2022-09-03T00:38:58.789Z,62.94
2022-09-03T00:39:09.228Z,62.95
2022-09-03T00:39:18.830Z,62.97
2022-09-03T00:39:29.332Z,62.95
2022-09-03T00:39:40.759Z,62.97
2022-09-03T00:39:50.744Z,63.08
2022-09-03T00:39:58.838Z,63.08
2022-09-03T00:40:08.729Z,62.98
2022-09-03T00:40:19.330Z,63.04
2022-09-03T00:40:28.779Z,63.05
2022-09-03T00:40:40.209Z,63.03
2022-09-03T00:40:50.949Z,63.09
2022-09-03T00:41:00.690Z,63.10
2022-09-03T00:41:10.698Z,63.06
2022-09-03T00:41:20.731Z,63.09
2022-09-03T00:41:29.410Z,63.08
2022-09-03T00:41:40.688Z,63.01
2022-09-03T00:41:50.680Z,63.10
2022-09-03T00:41:58.750Z,63.12
2022-09-03T00:42:08.750Z,62.98
2022-09-03T00:42:18.750Z,63.01
2022-09-03T00:42:28.748Z,63.08
2022-09-03T00:42:38.760Z,63.07
2022-09-03T00:42:48.762Z,63.03
2022-09-03T00:42:58.791Z,63.04
2022-09-03T00:43:08.807Z,63.00
2022-09-03T00:43:20.697Z,63.02
2022-09-03T00:43:28.729Z,63.19
2022-09-03T00:43:40.724Z,63.05
2022-09-03T00:43:48.719Z,63.14
2022-09-03T00:44:00.682Z,62.99
2022-09-03T00:44:10.181Z,63.09
2022-09-03T00:44:20.711Z,63.22
2022-09-03T00:44:28.729Z,63.24
2022-09-03T00:44:38.740Z,63.05
2022-09-03T00:44:48.731Z,63.11
2022-09-03T00:44:58.743Z,63.11
2022-09-03T00:45:10.711Z,63.14
2022-09-03T00:45:20.179Z,63.22
2022-09-03T00:45:28.828Z,63.30
2022-09-03T00:45:39.570Z,63.22
2022-09-03T00:45:48.728Z,63.24
2022-09-03T00:46:00.765Z,63.15
2022-09-03T00:46:10.790Z,63.23
2022-09-03T00:46:20.764Z,63.15
2022-09-03T00:46:29.602Z,63.16
2022-09-03T00:46:40.705Z,63.10
2022-09-03T00:46:48.774Z,63.21
2022-09-03T00:46:58.831Z,63.03
2022-09-03T00:47:08.691Z,63.10
2022-09-03T00:47:18.730Z,63.12
2022-09-03T00:47:28.850Z,63.11
2022-09-03T00:47:40.713Z,63.18
2022-09-03T00:47:50.651Z,63.26
2022-09-03T00:47:58.700Z,63.26
2022-09-03T00:48:08.702Z,63.17
2022-09-03T00:48:20.792Z,63.22
2022-09-03T00:48:31.177Z,63.62
2022-09-03T00:48:42.233Z,63.46
2022-09-03T00:48:52.208Z,63.38
2022-09-03T00:49:02.222Z,63.30
2022-09-03T00:49:12.216Z,63.25
2022-09-03T00:49:20.263Z,63.22
2022-09-03T00:49:30.793Z,63.13
2022-09-03T00:49:40.245Z,63.20
2022-09-03T00:49:50.251Z,63.18
2022-09-03T00:50:00.291Z,63.21
2022-09-03T00:50:12.212Z,63.27
2022-09-03T00:50:22.210Z,63.42
2022-09-03T00:50:32.214Z,63.40
2022-09-03T00:50:42.190Z,63.41
2022-09-03T00:50:52.183Z,63.35
2022-09-03T00:51:02.193Z,63.39
2022-09-03T00:51:12.192Z,63.36
2022-09-03T00:51:22.183Z,63.49
2022-09-03T00:51:31.720Z,63.41
2022-09-03T00:51:40.262Z,63.36
2022-09-03T00:51:52.163Z,63.25
2022-09-03T00:52:01.684Z,63.39
2022-09-03T00:52:10.233Z,63.32
2022-09-03T00:52:23.264Z,63.26
2022-09-03T00:52:33.543Z,63.51
2022-09-03T00:52:41.712Z,63.75
2022-09-03T00:52:52.172Z,63.67
2022-09-03T00:53:00.934Z,63.53
2022-09-03T00:53:11.162Z,63.33
2022-09-03T00:53:20.338Z,63.36
2022-09-03T00:53:32.163Z,63.26
2022-09-03T00:53:40.224Z,63.41
2022-09-03T00:53:52.186Z,63.27
2022-09-03T00:54:00.224Z,63.34
2022-09-03T00:54:12.225Z,63.22
2022-09-03T00:54:20.222Z,63.33
2022-09-03T00:54:30.245Z,63.18
2022-09-03T00:54:40.226Z,63.16
2022-09-03T00:54:52.184Z,63.29
2022-09-03T00:55:00.221Z,63.29
2022-09-03T00:55:12.175Z,63.16
2022-09-03T00:55:21.203Z,63.36
2022-09-03T00:55:32.171Z,63.29
2022-09-03T00:55:40.213Z,63.36
2022-09-03T00:55:52.189Z,63.22
2022-09-03T00:56:02.161Z,63.33
2022-09-03T00:56:11.146Z,63.33
2022-09-03T00:56:20.204Z,63.27
2022-09-03T00:56:32.164Z,63.27
2022-09-03T00:56:42.145Z,63.36
2022-09-03T00:56:50.305Z,63.29
2022-09-03T00:57:00.252Z,63.18
2022-09-03T00:57:10.187Z,63.28
2022-09-03T00:57:22.143Z,63.36
2022-09-03T00:57:30.192Z,63.44
2022-09-03T00:57:42.297Z,63.32
2022-09-03T00:57:50.971Z,63.47
2022-09-03T00:58:01.663Z,63.37
2022-09-03T00:58:10.242Z,63.48
2022-09-03T00:58:20.204Z,63.41
2022-09-03T00:58:32.134Z,63.38
2022-09-03T00:58:40.212Z,63.43
2022-09-03T00:58:52.172Z,63.31
2022-09-03T00:59:00.240Z,63.49
2022-09-03T00:59:10.174Z,63.35
2022-09-03T00:59:22.164Z,63.41
2022-09-03T00:59:30.193Z,63.61
2022-09-03T00:59:41.052Z,63.48
2022-09-03T00:59:50.201Z,63.50
2022-09-03T01:00:02.145Z,63.45
2022-09-03T01:00:10.283Z,63.55
2022-09-03T01:00:20.214Z,63.42
2022-09-03T01:00:32.214Z,63.47
2022-09-03T01:00:42.235Z,63.51
2022-09-03T01:00:52.126Z,63.50
2022-09-03T01:01:00.254Z,63.42
2022-09-03T01:01:10.326Z,63.33
2022-09-03T01:01:20.548Z,63.37
2022-09-03T01:01:30.557Z,63.43
2022-09-03T01:01:40.327Z,63.44
2022-09-03T01:01:50.379Z,63.44
2022-09-03T01:02:00.487Z,63.43
2022-09-03T01:02:10.406Z,63.41
2022-09-03T01:02:21.280Z,63.42
2022-09-03T01:02:30.460Z,63.59
2022-09-03T01:02:40.544Z,63.55
2022-09-03T01:02:50.298Z,63.56
2022-09-03T01:03:00.372Z,63.53
2022-09-03T01:03:12.096Z,63.55
2022-09-03T01:03:20.177Z,63.66
2022-09-03T01:03:32.116Z,63.48
2022-09-03T01:03:40.145Z,63.61
2022-09-03T01:03:51.615Z,63.50
2022-09-03T01:04:02.126Z,63.54
2022-09-03T01:04:10.196Z,63.51
2022-09-03T01:04:22.107Z,63.38
2022-09-03T01:04:30.145Z,63.58
2022-09-03T01:04:40.156Z,63.47
2022-09-03T01:04:52.129Z,63.49
2022-09-03T01:05:00.158Z,63.59
2022-09-03T01:05:10.320Z,63.47
2022-09-03T01:05:20.156Z,63.53
2022-09-03T01:05:31.005Z,63.49
2022-09-03T01:05:40.136Z,63.54
2022-09-03T01:05:52.107Z,63.50
2022-09-03T01:06:02.185Z,63.62
2022-09-03T01:06:12.076Z,63.55
2022-09-03T01:06:20.140Z,63.56
2022-09-03T01:06:32.137Z,63.47
2022-09-03T01:06:42.076Z,63.60
2022-09-03T01:06:50.615Z,63.55
2022-09-03T01:07:00.296Z,63.51
2022-09-03T01:07:10.126Z,63.49
2022-09-03T01:07:20.136Z,63.52
2022-09-03T01:07:30.152Z,63.57
2022-09-03T01:07:41.046Z,63.60
2022-09-03T01:07:50.155Z,63.58
2022-09-03T01:08:00.126Z,63.52
2022-09-03T01:08:12.090Z,63.56
2022-09-03T01:08:20.137Z,63.63
2022-09-03T01:08:30.167Z,63.51
2022-09-03T01:08:40.109Z,63.52
2022-09-03T01:08:52.091Z,63.67
2022-09-03T01:09:02.098Z,63.61
2022-09-03T01:09:10.118Z,63.58
2022-09-03T01:09:22.077Z,63.49
2022-09-03T01:09:30.107Z,63.62
2022-09-03T01:09:42.077Z,63.56
2022-09-03T01:09:50.116Z,63.66
2022-09-03T01:10:01.087Z,63.48
2022-09-03T01:10:11.096Z,63.52
2022-09-03T01:10:20.131Z,63.50
2022-09-03T01:10:30.273Z,63.48
2022-09-03T01:10:42.060Z,63.58
2022-09-03T01:10:51.564Z,63.66
2022-09-03T01:11:02.064Z,63.56
2022-09-03T01:11:10.566Z,63.57
2022-09-03T01:11:20.087Z,63.51
2022-09-03T01:11:30.158Z,63.54
2022-09-03T01:11:40.107Z,63.60
2022-09-03T01:11:52.065Z,63.61
2022-09-03T01:12:00.227Z,63.65
2022-09-03T01:12:10.087Z,63.54
2022-09-03T01:12:20.857Z,63.52
2022-09-03T01:12:30.131Z,63.58
2022-09-03T01:12:40.100Z,63.46
2022-09-03T01:12:50.078Z,63.46
2022-09-03T01:13:00.242Z,63.44
2022-09-03T01:13:10.089Z,63.51
2022-09-03T01:13:22.068Z,63.50
2022-09-03T01:13:32.028Z,63.58
2022-09-03T01:13:40.687Z,63.53
2022-09-03T01:13:50.079Z,63.47
2022-09-03T01:14:02.068Z,63.51
2022-09-03T01:14:12.028Z,63.63
2022-09-03T01:14:20.828Z,63.58
2022-09-03T01:14:30.329Z,63.52
2022-09-03T01:14:40.199Z,63.47
2022-09-03T01:14:52.018Z,63.50
2022-09-03T01:15:02.029Z,63.61
2022-09-03T01:15:11.558Z,63.54
2022-09-03T01:15:22.018Z,63.52
2022-09-03T01:15:30.120Z,63.53
2022-09-03T01:15:40.144Z,63.48
2022-09-03T01:15:50.163Z,63.55
2022-09-03T01:16:02.112Z,63.56
2022-09-03T01:16:12.077Z,63.68
2022-09-03T01:16:20.104Z,63.62
2022-09-03T01:16:30.080Z,63.58
2022-09-03T01:16:40.143Z,63.62
2022-09-03T01:16:50.067Z,63.62
2022-09-03T01:17:00.093Z,63.54
2022-09-03T01:17:11.999Z,63.51
2022-09-03T01:17:21.998Z,63.55
2022-09-03T01:17:30.059Z,63.53
2022-09-03T01:17:40.058Z,63.40
2022-09-03T01:17:50.096Z,63.38
2022-09-03T01:18:00.075Z,63.42
2022-09-03T01:18:10.070Z,63.39
2022-09-03T01:18:20.119Z,63.42
2022-09-03T01:18:32.009Z,63.35
2022-09-03T01:18:40.079Z,63.45
2022-09-03T01:18:50.059Z,63.29
2022-09-03T01:19:00.107Z,63.31
2022-09-03T01:19:10.058Z,63.35
2022-09-03T01:19:22.011Z,63.39
2022-09-03T01:19:31.509Z,63.44
2022-09-03T01:19:40.050Z,63.40
2022-09-03T01:19:52.013Z,63.29
2022-09-03T01:20:00.163Z,63.44
2022-09-03T01:20:10.061Z,63.35
2022-09-03T01:20:21.990Z,63.37
2022-09-03T01:20:31.997Z,63.50
2022-09-03T01:20:40.052Z,63.49
2022-09-03T01:20:52.110Z,63.37
2022-09-03T01:21:00.538Z,63.55
2022-09-03T01:21:10.239Z,63.45
2022-09-03T01:21:22.047Z,63.45
2022-09-03T01:21:31.987Z,63.60
2022-09-03T01:21:40.037Z,63.54
2022-09-03T01:21:50.060Z,63.39
2022-09-03T01:22:00.050Z,63.46
2022-09-03T01:22:11.981Z,63.54
2022-09-03T01:22:20.094Z,63.63
2022-09-03T01:22:30.901Z,63.55
2022-09-03T01:22:41.990Z,63.64
2022-09-03T01:22:51.970Z,63.65
2022-09-03T01:23:00.039Z,63.63
2022-09-03T01:23:10.349Z,63.59
2022-09-03T01:23:21.961Z,63.71
2022-09-03T01:23:31.961Z,63.90
2022-09-03T01:23:40.024Z,63.83
2022-09-03T01:23:51.971Z,63.72
2022-09-03T01:24:01.971Z,63.89
2022-09-03T01:24:11.969Z,63.82
2022-09-03T01:24:20.029Z,63.86
2022-09-03T01:24:31.990Z,63.76
2022-09-03T01:24:40.019Z,63.81
2022-09-03T01:24:51.961Z,63.66
2022-09-03T01:25:00.449Z,63.79
2022-09-03T01:25:10.001Z,63.75
2022-09-03T01:25:20.019Z,63.73
2022-09-03T01:25:31.961Z,63.78
2022-09-03T01:25:39.993Z,63.94
2022-09-03T01:25:50.042Z,63.78
2022-09-03T01:26:00.531Z,63.81
2022-09-03T01:26:11.949Z,63.94
2022-09-03T01:26:21.951Z,63.98
2022-09-03T01:26:30.038Z,63.86
2022-09-03T01:26:40.563Z,63.73
2022-09-03T01:26:49.991Z,63.76
2022-09-03T01:27:01.971Z,63.78
2022-09-03T01:27:09.989Z,63.92
2022-09-03T01:27:21.944Z,63.80
2022-09-03T01:27:30.542Z,64.01
2022-09-03T01:27:40.571Z,63.95
2022-09-03T01:27:51.940Z,63.91
2022-09-03T01:28:00.629Z,64.03
2022-09-03T01:28:10.072Z,63.86
2022-09-03T01:28:20.634Z,63.80
2022-09-03T01:28:30.651Z,63.86
2022-09-03T01:28:40.576Z,63.78
2022-09-03T01:28:50.017Z,63.78
2022-09-03T01:29:39.725Z,64.36
2022-09-03T01:29:47.588Z,64.21
2022-09-03T01:29:58.392Z,63.90
2022-09-03T01:30:09.569Z,63.90
2022-09-03T01:30:19.528Z,63.88
2022-09-03T01:30:29.019Z,63.81
2022-09-03T01:30:39.567Z,63.75
2022-09-03T01:30:47.567Z,63.86
2022-09-03T01:30:57.650Z,63.83
2022-09-03T01:31:09.649Z,63.79
2022-09-03T01:31:17.674Z,63.99
2022-09-03T01:31:27.640Z,63.82
2022-09-03T01:31:39.530Z,63.87
2022-09-03T01:31:49.508Z,63.96
2022-09-03T01:31:59.519Z,63.96
2022-09-03T01:32:09.499Z,63.95
2022-09-03T01:32:17.628Z,63.91
2022-09-03T01:32:27.576Z,63.83
2022-09-03T01:32:37.559Z,63.89
2022-09-03T01:32:47.560Z,63.89
2022-09-03T01:32:57.583Z,63.90
2022-09-03T01:33:07.558Z,63.93
2022-09-03T01:33:18.327Z,63.91
2022-09-03T01:33:27.561Z,63.95
2022-09-03T01:33:37.559Z,63.92
2022-09-03T01:33:49.566Z,63.94
2022-09-03T01:33:57.570Z,64.05
2022-09-03T01:34:07.570Z,64.00
2022-09-03T01:34:19.552Z,64.05
2022-09-03T01:34:27.540Z,64.15
2022-09-03T01:34:37.559Z,63.99
2022-09-03T01:34:47.559Z,64.01
2022-09-03T01:34:59.520Z,64.02
2022-09-03T01:35:09.520Z,64.14
2022-09-03T01:35:19.501Z,64.12
2022-09-03T01:35:27.540Z,64.07
2022-09-03T01:35:39.542Z,64.01
2022-09-03T01:35:49.480Z,64.11
2022-09-03T01:35:59.495Z,64.06
2022-09-03T01:36:09.523Z,64.03
2022-09-03T01:36:18.041Z,64.03
2022-09-03T01:36:27.573Z,63.98
2022-09-03T01:36:37.565Z,63.92
2022-09-03T01:36:48.500Z,64.02
2022-09-03T01:36:59.491Z,64.12
2022-09-03T01:37:09.484Z,64.15
2022-09-03T01:37:17.520Z,64.15
2022-09-03T01:37:27.521Z,64.08
2022-09-03T01:37:39.495Z,64.13
2022-09-03T01:37:47.521Z,64.26
2022-09-03T01:37:59.489Z,64.17
2022-09-03T01:38:09.462Z,64.30
2022-09-03T01:38:19.516Z,64.24
2022-09-03T01:38:28.977Z,64.33
2022-09-03T01:38:37.520Z,64.37
2022-09-03T01:38:49.470Z,64.23
2022-09-03T01:38:58.551Z,64.30
2022-09-03T01:39:09.572Z,64.22
2022-09-03T01:39:17.645Z,64.23
2022-09-03T01:39:27.717Z,64.14
2022-09-03T01:39:37.710Z,64.17
2022-09-03T01:39:47.778Z,64.20
2022-09-03T01:39:57.664Z,64.21
2022-09-03T01:40:09.578Z,64.22
2022-09-03T01:40:19.580Z,64.34
2022-09-03T01:40:27.614Z,64.32
2022-09-03T01:40:38.390Z,64.18
2022-09-03T01:40:47.642Z,64.34
2022-09-03T01:40:57.666Z,64.30
2022-09-03T01:41:07.611Z,64.28
2022-09-03T01:41:17.691Z,64.30
2022-09-03T01:41:27.588Z,64.27
2022-09-03T01:41:37.618Z,64.31
2022-09-03T01:41:49.593Z,64.31
2022-09-03T01:41:57.877Z,64.46
2022-09-03T01:42:09.555Z,64.33
2022-09-03T01:42:20.403Z,64.43
2022-09-03T01:42:29.563Z,64.53
2022-09-03T01:42:37.592Z,64.52
2022-09-03T01:42:47.602Z,64.33
2022-09-03T01:42:57.639Z,64.34
2022-09-03T01:43:07.621Z,64.34
2022-09-03T01:43:17.648Z,64.35
2022-09-03T01:43:29.542Z,64.35
2022-09-03T01:43:43.383Z,64.75
2022-09-03T01:43:51.858Z,64.88
2022-09-03T01:44:01.327Z,64.69
2022-09-03T01:44:09.842Z,64.47
2022-09-03T01:44:21.811Z,64.34
2022-09-03T01:44:31.784Z,64.46
2022-09-03T01:44:39.847Z,64.44
2022-09-03T01:44:52.969Z,64.29
2022-09-03T01:45:00.789Z,64.59
2022-09-03T01:45:11.779Z,64.58
2022-09-03T01:45:21.808Z,64.55
2022-09-03T01:45:30.742Z,64.52
2022-09-03T01:45:46.747Z,64.37
2022-09-03T01:45:52.378Z,64.74
2022-09-03T01:46:02.270Z,64.64
2022-09-03T01:46:11.405Z,64.54
2022-09-03T01:46:23.437Z,64.53
2022-09-03T01:46:31.451Z,64.63
2022-09-03T01:46:41.477Z,64.50
2022-09-03T01:46:51.485Z,64.56
2022-09-03T01:47:01.353Z,64.58
2022-09-03T01:47:11.809Z,64.55
2022-09-03T01:47:21.405Z,64.70
2022-09-03T01:47:31.384Z,64.50
2022-09-03T01:47:41.610Z,64.52
2022-09-03T01:47:53.293Z,64.57
2022-09-03T01:48:01.483Z,64.63
2022-09-03T01:48:11.537Z,64.51
2022-09-03T01:48:23.367Z,64.52
2022-09-03T01:48:31.592Z,64.59
2022-09-03T01:48:41.539Z,64.46
2022-09-03T01:48:51.353Z,64.50
2022-09-03T01:49:01.617Z,64.51
2022-09-03T01:49:11.633Z,64.58
2022-09-03T01:49:21.567Z,64.60
2022-09-03T01:49:32.814Z,64.58
2022-09-03T01:49:41.648Z,64.64
2022-09-03T01:49:53.285Z,64.50
2022-09-03T01:50:01.514Z,64.59
2022-09-03T01:50:11.637Z,64.51
2022-09-03T01:50:21.673Z,64.52
2022-09-03T01:50:31.328Z,64.57
2022-09-03T01:50:41.677Z,64.51
2022-09-03T01:50:51.695Z,64.51
2022-09-03T01:51:01.443Z,64.53
2022-09-03T01:51:11.645Z,64.46
2022-09-03T01:51:21.683Z,64.54
2022-09-03T01:51:33.276Z,64.57
2022-09-03T01:51:41.334Z,64.62
2022-09-03T01:51:52.181Z,64.52
2022-09-03T01:52:01.363Z,64.55
2022-09-03T01:52:11.373Z,64.51
2022-09-03T01:52:21.700Z,64.55
2022-09-03T01:52:31.313Z,64.58
2022-09-03T01:52:41.804Z,64.53
2022-09-03T01:52:51.313Z,64.55
2022-09-03T01:53:01.353Z,64.55
2022-09-03T01:53:13.322Z,64.59
2022-09-03T01:53:23.285Z,64.63
2022-09-03T01:53:33.281Z,64.62
2022-09-03T01:53:42.774Z,64.64
2022-09-03T01:53:51.331Z,64.62
2022-09-03T01:54:03.287Z,64.56
2022-09-03T01:54:20.809Z,64.70
2022-09-03T01:54:21.811Z,64.91
2022-09-03T01:54:31.383Z,64.76
2022-09-03T01:54:43.292Z,64.63
2022-09-03T01:54:51.318Z,64.74
2022-09-03T01:55:01.374Z,64.63
2022-09-03T01:55:13.262Z,64.62
2022-09-03T01:55:22.102Z,64.74
2022-09-03T01:55:33.266Z,64.57
2022-09-03T01:55:41.305Z,64.63
2022-09-03T01:55:51.494Z,64.53
2022-09-03T01:56:01.460Z,64.58
2022-09-03T01:56:13.243Z,64.60
2022-09-03T01:56:22.262Z,64.76
2022-09-03T01:56:33.250Z,64.67
2022-09-03T01:56:43.248Z,64.72
2022-09-03T01:56:52.214Z,64.73
2022-09-03T01:57:01.295Z,64.68
2022-09-03T01:57:19.128Z,64.72
2022-09-03T01:57:35.183Z,65.33
2022-09-03T01:57:35.284Z,65.19
2022-09-03T01:57:45.125Z,65.36
2022-09-03T01:57:54.166Z,65.31
2022-09-03T01:58:05.270Z,65.09
2022-09-03T01:58:15.296Z,65.11
2022-09-03T01:58:23.351Z,65.01
2022-09-03T01:58:35.264Z,64.87
2022-09-03T01:58:45.244Z,64.96
2022-09-03T01:58:53.287Z,64.93
2022-09-03T01:59:05.233Z,64.84
2022-09-03T01:59:15.235Z,65.02
2022-09-03T01:59:25.224Z,65.01
2022-09-03T01:59:34.725Z,64.98
2022-09-03T01:59:43.266Z,64.94
2022-09-03T01:59:53.299Z,64.83
2022-09-03T02:00:03.404Z,64.93
2022-09-03T02:00:13.270Z,64.99
2022-09-03T02:00:23.298Z,64.98
2022-09-03T02:00:35.226Z,64.98
2022-09-03T02:00:43.308Z,65.03
2022-09-03T02:00:53.301Z,64.88
2022-09-03T02:01:03.274Z,64.96
2022-09-03T02:01:13.381Z,64.95
2022-09-03T02:01:23.294Z,65.20
2022-09-03T02:01:34.148Z,65.03
2022-09-03T02:01:45.312Z,65.09
2022-09-03T02:01:55.259Z,65.03
2022-09-03T02:02:03.337Z,64.96
2022-09-03T02:02:13.334Z,64.80
2022-09-03T02:02:23.382Z,64.79
2022-09-03T02:02:33.356Z,64.79
2022-09-03T02:02:45.403Z,64.82
2022-09-03T02:02:55.223Z,64.96
2022-09-03T02:03:03.329Z,64.92
2022-09-03T02:03:15.210Z,64.79
2022-09-03T02:03:25.215Z,64.94
2022-09-03T02:03:35.200Z,65.01
2022-09-03T02:03:46.763Z,65.32
2022-09-03T02:03:54.786Z,65.18
2022-09-03T02:04:04.817Z,64.99
2022-09-03T02:04:15.608Z,65.00
2022-09-03T02:04:24.840Z,65.03
2022-09-03T02:04:36.766Z,64.96
2022-09-03T02:04:44.776Z,65.07
2022-09-03T02:04:54.798Z,64.93
2022-09-03T02:05:04.796Z,64.91
2022-09-03T02:05:16.742Z,64.97
2022-09-03T02:05:25.364Z,65.08
2022-09-03T02:05:35.738Z,64.95
2022-09-03T02:05:44.908Z,64.96
2022-09-03T02:05:55.366Z,64.97
2022-09-03T02:06:06.697Z,64.97
2022-09-03T02:06:15.670Z,64.95
2022-09-03T02:06:24.785Z,64.88
2022-09-03T02:06:36.717Z,64.91
2022-09-03T02:06:44.757Z,65.06
2022-09-03T02:06:54.792Z,64.94
2022-09-03T02:07:06.739Z,64.99
2022-09-03T02:07:16.697Z,65.11
2022-09-03T02:07:24.985Z,65.08
2022-09-03T02:07:35.537Z,64.94
2022-09-03T02:07:44.751Z,64.96
2022-09-03T02:07:55.378Z,64.97
2022-09-03T02:08:05.438Z,65.01
2022-09-03T02:08:15.526Z,65.07
2022-09-03T02:08:25.587Z,64.93
2022-09-03T02:08:35.318Z,64.93
2022-09-03T02:08:45.558Z,64.93
2022-09-03T02:08:54.786Z,64.95
2022-09-03T02:09:06.700Z,64.97
2022-09-03T02:09:14.738Z,65.10
2022-09-03T02:09:24.759Z,65.04
2022-09-03T02:09:36.732Z,65.41